createdAt,value
2024-03-16T00:00:29.154Z,64.37
2024-03-16T00:02:58.287Z,64.09
2024-03-16T00:05:26.820Z,64.13
2024-03-16T00:07:55.144Z,64.14
2024-03-16T00:10:23.158Z,64.81
2024-03-16T00:12:51.513Z,64.69
2024-03-16T00:15:19.530Z,63.88
2024-03-16T00:17:47.870Z,63.95
2024-03-16T00:20:18.087Z,64.37
2024-03-16T00:22:47.194Z,64.49
2024-03-16T00:25:16.112Z,64.21
2024-03-16T00:27:44.528Z,64.76
2024-03-16T00:30:12.508Z,64.61
2024-03-16T00:32:40.793Z,64.30
2024-03-16T00:35:08.851Z,64.49
2024-03-16T00:37:37.032Z,64.61
2024-03-16T00:40:08.560Z,65.07
2024-03-16T00:42:37.202Z,64.86
2024-03-16T00:45:05.603Z,64.37
2024-03-16T00:47:33.690Z,65.25
2024-03-16T00:50:01.656Z,64.76
2024-03-16T00:52:29.614Z,64.40
2024-03-16T00:54:57.937Z,65.09
2024-03-16T00:57:26.051Z,65.31
2024-03-16T00:59:55.199Z,64.95
2024-03-16T01:02:23.628Z,65.20
2024-03-16T01:04:51.482Z,65.20
2024-03-16T01:07:19.595Z,64.71
2024-03-16T01:09:47.508Z,64.50
2024-03-16T01:12:15.710Z,65.02
2024-03-16T01:14:43.645Z,64.64
2024-03-16T01:17:11.931Z,65.84
2024-03-16T01:19:42.903Z,65.05
2024-03-16T01:22:11.054Z,66.32
2024-03-16T01:24:39.339Z,66.40
2024-03-16T01:27:07.296Z,66.16
2024-03-16T01:29:35.852Z,65.68
2024-03-16T01:32:06.459Z,65.31
2024-03-16T01:34:34.757Z,65.64
2024-03-16T01:37:03.471Z,65.77
2024-03-16T01:39:31.493Z,65.39
2024-03-16T01:41:59.463Z,65.38
2024-03-16T01:44:27.380Z,65.74
2024-03-16T01:46:55.270Z,65.63
2024-03-16T01:49:23.343Z,65.32
2024-03-16T01:51:51.251Z,65.52
2024-03-16T01:54:19.471Z,65.58
2024-03-16T01:56:47.347Z,65.61
2024-03-16T01:59:15.399Z,65.60
2024-03-16T02:01:43.351Z,65.58
2024-03-16T02:04:11.833Z,65.80
2024-03-16T02:06:39.941Z,66.54
2024-03-16T02:09:11.675Z,66.47
2024-03-16T02:11:39.682Z,66.36
2024-03-16T02:14:08.597Z,66.28
2024-03-16T02:16:36.490Z,65.91
2024-03-16T02:19:04.791Z,65.59
2024-03-16T02:21:32.753Z,66.33
2024-03-16T02:24:01.584Z,65.71
2024-03-16T02:26:29.540Z,66.00
2024-03-16T02:28:57.783Z,66.08
2024-03-16T02:31:25.737Z,66.13
2024-03-16T02:33:54.026Z,65.90
2024-03-16T02:36:24.142Z,65.86
2024-03-16T02:38:52.191Z,66.11
2024-03-16T02:41:20.115Z,66.19
2024-03-16T02:43:48.017Z,66.47
2024-03-16T02:46:15.936Z,67.57
2024-03-16T02:48:46.736Z,66.66
2024-03-16T02:51:14.696Z,66.12
2024-03-16T02:53:42.922Z,66.55
2024-03-16T02:56:10.915Z,66.17
2024-03-16T02:58:39.152Z,66.14
2024-03-16T03:01:07.209Z,65.68
2024-03-16T03:03:35.573Z,66.41
2024-03-16T03:06:04.886Z,65.78
2024-03-16T03:08:35.074Z,66.42
2024-03-16T03:11:05.099Z,66.65
2024-03-16T03:13:33.440Z,66.15
2024-03-16T03:16:01.404Z,66.56
2024-03-16T03:18:29.708Z,66.30
2024-03-16T03:20:58.855Z,66.52
2024-03-16T03:23:27.009Z,65.77
2024-03-16T03:25:55.024Z,66.40
2024-03-16T03:28:23.133Z,67.47
2024-03-16T03:30:51.327Z,66.24
2024-03-16T03:33:19.595Z,66.05
2024-03-16T03:35:47.530Z,66.72
2024-03-16T03:38:15.764Z,66.59
2024-03-16T03:40:43.672Z,66.49
2024-03-16T03:43:19.052Z,67.69
2024-03-16T03:45:46.981Z,67.16
2024-03-16T03:48:23.957Z,67.84
2024-03-16T03:50:53.548Z,67.78
2024-03-16T03:53:23.305Z,68.10
2024-03-16T03:55:51.475Z,68.34
2024-03-16T03:58:21.243Z,68.43
2024-03-16T04:00:50.564Z,68.15
2024-03-16T04:03:18.727Z,68.68
2024-03-16T04:05:46.774Z,69.44
2024-03-16T04:08:14.711Z,69.49
2024-03-16T04:10:42.606Z,69.79
2024-03-16T04:13:12.745Z,69.04
2024-03-16T04:15:40.787Z,68.72
2024-03-16T04:18:09.135Z,69.17
2024-03-16T04:20:37.048Z,69.26
2024-03-16T04:23:05.189Z,68.80
2024-03-16T04:25:33.211Z,69.53
2024-03-16T04:28:01.398Z,69.06
2024-03-16T04:30:29.417Z,69.34
2024-03-16T04:32:57.401Z,69.56
2024-03-16T04:35:25.308Z,69.49
2024-03-16T04:37:53.949Z,69.48
2024-03-16T04:40:21.899Z,69.52
2024-03-16T04:42:49.829Z,69.09
2024-03-16T04:45:17.737Z,68.40
2024-03-16T04:47:45.733Z,68.45
2024-03-16T04:50:16.258Z,68.59
2024-03-16T04:52:44.202Z,68.85
2024-03-16T04:55:12.473Z,68.72
2024-03-16T04:57:40.617Z,68.73
2024-03-16T05:00:12.924Z,68.61
2024-03-16T05:02:41.048Z,68.63
2024-03-16T05:05:10.100Z,68.43
2024-03-16T05:07:38.557Z,69.02
2024-03-16T05:10:06.972Z,68.58
2024-03-16T05:12:35.344Z,68.48
2024-03-16T05:15:03.794Z,68.57
2024-03-16T05:17:32.865Z,68.42
2024-03-16T05:20:01.213Z,68.27
2024-03-16T05:22:31.064Z,68.29
2024-03-16T05:24:59.010Z,67.90
2024-03-16T05:27:28.661Z,67.66
2024-03-16T05:29:57.231Z,67.74
2024-03-16T05:32:25.390Z,67.96
2024-03-16T05:34:53.601Z,67.72
2024-03-16T05:37:21.751Z,67.75
2024-03-16T05:39:49.657Z,68.08
2024-03-16T05:42:18.159Z,67.64
2024-03-16T05:44:46.031Z,68.24
2024-03-16T05:47:14.328Z,67.96
2024-03-16T05:49:42.213Z,67.53
2024-03-16T05:52:10.484Z,67.49
2024-03-16T05:54:38.434Z,66.80
2024-03-16T05:57:06.845Z,67.11
2024-03-16T05:59:35.210Z,67.29
2024-03-16T06:02:03.445Z,68.70
2024-03-16T06:04:31.389Z,68.31
2024-03-16T06:06:59.513Z,69.59
2024-03-16T06:09:27.439Z,69.42
2024-03-16T06:11:56.165Z,69.26
2024-03-16T06:14:24.284Z,68.81
2024-03-16T06:16:53.572Z,69.11
2024-03-16T06:19:21.616Z,69.48
2024-03-16T06:21:50.250Z,68.93
2024-03-16T06:24:18.170Z,68.93
2024-03-16T06:26:53.877Z,68.78
2024-03-16T06:29:27.070Z,68.40
2024-03-16T06:32:06.743Z,68.06
2024-03-16T06:34:35.353Z,68.65
2024-03-16T06:37:04.530Z,68.35
2024-03-16T06:39:32.687Z,68.97
2024-03-16T06:42:00.983Z,67.88
2024-03-16T06:44:28.987Z,67.75
2024-03-16T06:46:57.078Z,67.80
2024-03-16T06:49:24.985Z,67.86
2024-03-16T06:51:52.860Z,67.52
2024-03-16T06:54:21.154Z,67.19
2024-03-16T06:56:49.460Z,67.35
2024-03-16T06:59:17.330Z,66.92
2024-03-16T07:01:45.546Z,67.23
2024-03-16T07:04:14.838Z,66.74
2024-03-16T07:06:43.179Z,67.08
2024-03-16T07:09:12.317Z,66.13
2024-03-16T07:11:42.148Z,66.92
2024-03-16T07:14:11.156Z,66.94
2024-03-16T07:16:39.396Z,66.57
2024-03-16T07:19:07.346Z,67.09
2024-03-16T07:21:35.618Z,66.62
2024-03-16T07:24:04.499Z,66.18
2024-03-16T07:26:33.067Z,66.23
2024-03-16T07:29:01.010Z,66.41
2024-03-16T07:31:29.012Z,65.82
2024-03-16T07:33:59.301Z,66.70
2024-03-16T07:36:28.910Z,66.33
2024-03-16T07:38:58.251Z,66.08
2024-03-16T07:41:26.223Z,64.92
2024-03-16T07:43:54.531Z,65.06
2024-03-16T07:46:22.556Z,64.49
2024-03-16T07:48:51.461Z,64.18
2024-03-16T07:51:21.068Z,63.96
2024-03-16T07:53:49.177Z,64.40
2024-03-16T07:56:17.185Z,65.02
2024-03-16T07:58:45.394Z,64.15
2024-03-16T08:01:14.135Z,65.10
2024-03-16T08:03:43.584Z,65.02
2024-03-16T08:06:12.199Z,64.71
2024-03-16T08:08:43.484Z,64.91
2024-03-16T08:11:12.914Z,64.11
2024-03-16T08:13:41.980Z,64.86
2024-03-16T08:16:10.043Z,63.04
2024-03-16T08:18:38.355Z,63.44
2024-03-16T08:21:09.000Z,62.98
2024-03-16T08:23:37.401Z,62.51
2024-03-16T08:26:06.899Z,62.31
2024-03-16T08:28:35.406Z,63.18
2024-03-16T08:31:03.832Z,62.14
2024-03-16T08:33:33.071Z,61.23
2024-03-16T08:36:01.137Z,61.58
2024-03-16T08:38:31.831Z,61.02
2024-03-16T08:41:00.187Z,60.22
2024-03-16T08:43:28.811Z,59.09
2024-03-16T08:45:56.852Z,58.91
2024-03-16T08:48:25.017Z,58.26
2024-03-16T08:50:53.015Z,59.55
2024-03-16T08:53:21.389Z,59.28
2024-03-16T08:55:49.283Z,58.38
2024-03-16T08:58:17.520Z,56.99
2024-03-16T09:00:45.520Z,57.23
2024-03-16T09:03:13.666Z,57.35
2024-03-16T09:05:41.520Z,58.37
2024-03-16T09:08:09.571Z,57.45
2024-03-16T09:10:37.629Z,57.99
2024-03-16T09:13:05.999Z,56.57
2024-03-16T09:15:35.057Z,56.03
2024-03-16T09:18:05.182Z,55.91
2024-03-16T09:20:33.322Z,56.84
2024-03-16T09:23:01.215Z,55.72
2024-03-16T09:25:29.181Z,56.21
2024-03-16T09:27:57.300Z,56.16
2024-03-16T09:30:25.214Z,54.85
2024-03-16T09:32:53.109Z,55.00
2024-03-16T09:35:20.971Z,54.45
2024-03-16T09:37:49.536Z,55.09
2024-03-16T09:40:17.623Z,55.05
2024-03-16T09:42:46.012Z,55.03
